College Station, Texas
Current Conditions -  °F | °C
As of 11:53 AM on Monday 24 Nov 2014 (Local Time) from KCLL Reporting Station
Clear Clear  
Wind Chill: 61°   Ceiling: Unl
Heat Index: 61°   Visibility: 10mi
Dew Point: 32°   Wind: 10mph
Humidity: 34%   Direction: 320°NW
Pressure: 30.06"   Gusts: 18mph
Location:  30.62°N, 96.32°W
Report Text: KCLL 241753Z 32009G16KT 10SM CLR 16/00 A3006 RMK AO2 SLP178 T01610000 10167 20072 50001
Loading
Personal Weather Stations






























Interactive Weather Map New forecast layout! Learn more

10-Day Weather Forecast

Advertisements
Track Severe Weather on mobile